sensor_id;sensor_type;location;lat;lon;timestamp;pressure;altitude;pressure_sealevel;temperature;humidity
63447;BME280;49577;49.872;6.190;2023-02-19T00:01:10;100033.52;;;8.04;91.89
63447;BME280;49577;49.872;6.190;2023-02-19T00:03:36;100019.12;;;8.03;91.96
63447;BME280;49577;49.872;6.190;2023-02-19T00:06:05;100004.73;;;8.02;91.97
63447;BME280;49577;49.872;6.190;2023-02-19T00:08:31;100007.98;;;8.00;92.15
63447;BME280;49577;49.872;6.190;2023-02-19T00:11:03;100016.52;;;7.99;92.24
63447;BME280;49577;49.872;6.190;2023-02-19T00:13:29;100021.30;;;8.01;92.37
63447;BME280;49577;49.872;6.190;2023-02-19T00:15:54;100018.97;;;8.02;92.34
63447;BME280;49577;49.872;6.190;2023-02-19T00:18:20;100013.53;;;8.04;92.53
63447;BME280;49577;49.872;6.190;2023-02-19T00:20:46;100003.95;;;8.04;92.57
63447;BME280;49577;49.872;6.190;2023-02-19T00:23:11;99999.15;;;8.02;92.51
63447;BME280;49577;49.872;6.190;2023-02-19T00:25:36;100000.94;;;8.01;92.66
63447;BME280;49577;49.872;6.190;2023-02-19T00:28:02;100000.92;;;8.02;92.68
63447;BME280;49577;49.872;6.190;2023-02-19T00:30:27;100000.95;;;8.01;92.80
63447;BME280;49577;49.872;6.190;2023-02-19T00:32:53;100000.81;;;8.00;92.93
63447;BME280;49577;49.872;6.190;2023-02-19T00:35:19;99995.79;;;8.00;92.94
63447;BME280;49577;49.872;6.190;2023-02-19T00:37:44;99999.59;;;8.00;93.00
63447;BME280;49577;49.872;6.190;2023-02-19T00:40:09;99996.85;;;8.00;93.05
63447;BME280;49577;49.872;6.190;2023-02-19T00:42:35;99998.90;;;8.00;93.17
63447;BME280;49577;49.872;6.190;2023-02-19T00:45:00;99998.11;;;8.02;93.18
63447;BME280;49577;49.872;6.190;2023-02-19T00:47:25;99999.93;;;8.04;93.07
63447;BME280;49577;49.872;6.190;2023-02-19T00:49:50;100004.05;;;8.05;93.01
63447;BME280;49577;49.872;6.190;2023-02-19T00:52:15;100002.97;;;8.06;93.01
63447;BME280;49577;49.872;6.190;2023-02-19T00:54:41;99998.44;;;8.06;92.87
63447;BME280;49577;49.872;6.190;2023-02-19T00:57:06;99998.95;;;8.07;92.96
63447;BME280;49577;49.872;6.190;2023-02-19T00:59:31;99993.36;;;8.07;92.82
63447;BME280;49577;49.872;6.190;2023-02-19T01:01:56;99996.99;;;8.07;92.87
63447;BME280;49577;49.872;6.190;2023-02-19T01:04:21;100000.93;;;8.09;92.79
63447;BME280;49577;49.872;6.190;2023-02-19T01:06:47;99996.92;;;8.09;92.68
63447;BME280;49577;49.872;6.190;2023-02-19T01:09:12;99994.91;;;8.07;92.62
63447;BME280;49577;49.872;6.190;2023-02-19T01:11:38;99994.94;;;8.07;92.83
63447;BME280;49577;49.872;6.190;2023-02-19T01:14:03;99989.15;;;8.08;92.98
63447;BME280;49577;49.872;6.190;2023-02-19T01:16:29;99988.27;;;8.08;92.95
63447;BME280;49577;49.872;6.190;2023-02-19T01:18:55;99984.19;;;8.10;92.99
63447;BME280;49577;49.872;6.190;2023-02-19T01:21:21;99983.72;;;8.09;92.85
63447;BME280;49577;49.872;6.190;2023-02-19T01:23:48;99984.46;;;8.07;92.85
63447;BME280;49577;49.872;6.190;2023-02-19T01:26:17;99981.33;;;8.07;92.90
63447;BME280;49577;49.872;6.190;2023-02-19T01:28:44;99976.95;;;8.08;92.93
63447;BME280;49577;49.872;6.190;2023-02-19T01:31:12;99970.00;;;8.08;92.85
63447;BME280;49577;49.872;6.190;2023-02-19T01:33:38;99973.32;;;8.08;92.81
63447;BME280;49577;49.872;6.190;2023-02-19T01:36:04;99967.36;;;8.09;92.92
63447;BME280;49577;49.872;6.190;2023-02-19T01:38:29;99971.58;;;8.08;92.89
63447;BME280;49577;49.872;6.190;2023-02-19T01:40:55;99968.70;;;8.06;92.89
63447;BME280;49577;49.872;6.190;2023-02-19T01:43:20;99965.79;;;8.05;93.01
63447;BME280;49577;49.872;6.190;2023-02-19T01:45:45;99967.66;;;8.06;93.15
63447;BME280;49577;49.872;6.190;2023-02-19T01:48:12;99966.71;;;8.07;93.22
63447;BME280;49577;49.872;6.190;2023-02-19T01:50:42;99962.52;;;8.08;93.29
63447;BME280;49577;49.872;6.190;2023-02-19T01:53:09;99968.21;;;8.09;93.06
63447;BME280;49577;49.872;6.190;2023-02-19T01:55:36;99968.21;;;8.09;92.96
63447;BME280;49577;49.872;6.190;2023-02-19T01:58:01;99967.19;;;8.08;92.99
63447;BME280;49577;49.872;6.190;2023-02-19T02:00:27;99969.58;;;8.10;93.07
63447;BME280;49577;49.872;6.190;2023-02-19T02:02:53;99970.52;;;8.12;92.99
63447;BME280;49577;49.872;6.190;2023-02-19T02:07:48;99973.05;;;8.14;92.94
63447;BME280;49577;49.872;6.190;2023-02-19T02:10:32;99971.41;;;8.15;92.80
63447;BME280;49577;49.872;6.190;2023-02-19T02:12:57;99961.16;;;8.15;92.85
63447;BME280;49577;49.872;6.190;2023-02-19T02:15:23;99952.32;;;8.14;92.85
63447;BME280;49577;49.872;6.190;2023-02-19T02:17:56;99947.98;;;8.14;92.88
63447;BME280;49577;49.872;6.190;2023-02-19T02:35:54;99956.53;;;8.14;93.47
63447;BME280;49577;49.872;6.190;2023-02-19T02:38:21;99951.00;;;8.12;93.51
63447;BME280;49577;49.872;6.190;2023-02-19T02:40:47;99944.12;;;8.11;93.41
63447;BME280;49577;49.872;6.190;2023-02-19T02:43:13;99944.63;;;8.11;93.48
63447;BME280;49577;49.872;6.190;2023-02-19T02:45:38;99943.98;;;8.10;93.57
63447;BME280;49577;49.872;6.190;2023-02-19T02:50:30;99938.84;;;8.12;93.55
63447;BME280;49577;49.872;6.190;2023-02-19T02:52:59;99943.05;;;8.11;93.68
63447;BME280;49577;49.872;6.190;2023-02-19T02:55:44;99940.94;;;8.11;93.88
63447;BME280;49577;49.872;6.190;2023-02-19T02:58:11;99942.45;;;8.13;93.85
63447;BME280;49577;49.872;6.190;2023-02-19T03:00:37;99939.66;;;8.13;93.88
63447;BME280;49577;49.872;6.190;2023-02-19T03:03:23;99942.11;;;8.13;93.72
63447;BME280;49577;49.872;6.190;2023-02-19T03:05:51;99938.50;;;8.12;93.89
63447;BME280;49577;49.872;6.190;2023-02-19T03:11:05;99942.36;;;8.11;94.12
63447;BME280;49577;49.872;6.190;2023-02-19T03:13:50;99948.72;;;8.09;94.10
63447;BME280;49577;49.872;6.190;2023-02-19T03:16:36;99959.73;;;8.08;94.35
63447;BME280;49577;49.872;6.190;2023-02-19T03:19:21;99963.52;;;8.09;94.53
63447;BME280;49577;49.872;6.190;2023-02-19T03:21:56;99963.83;;;8.10;94.46
63447;BME280;49577;49.872;6.190;2023-02-19T03:24:26;99956.88;;;8.10;94.47
63447;BME280;49577;49.872;6.190;2023-02-19T03:27:10;99957.73;;;8.10;94.52
63447;BME280;49577;49.872;6.190;2023-02-19T03:29:37;99957.42;;;8.09;94.58
63447;BME280;49577;49.872;6.190;2023-02-19T03:32:05;99960.77;;;8.08;94.49
63447;BME280;49577;49.872;6.190;2023-02-19T03:35:15;99963.16;;;8.09;94.53
63447;BME280;49577;49.872;6.190;2023-02-19T03:37:23;99953.00;;;8.11;94.49
63447;BME280;49577;49.872;6.190;2023-02-19T03:39:51;99951.67;;;8.10;94.44
63447;BME280;49577;49.872;6.190;2023-02-19T03:47:27;99953.69;;;7.96;94.45
63447;BME280;49577;49.872;6.190;2023-02-19T04:05:34;99972.36;;;7.95;93.99
63447;BME280;49577;49.872;6.190;2023-02-19T04:08:12;99974.45;;;7.95;93.83
63447;BME280;49577;49.872;6.190;2023-02-19T04:10:39;99969.77;;;7.95;93.59
63447;BME280;49577;49.872;6.190;2023-02-19T04:13:09;99972.75;;;7.94;93.20
63447;BME280;49577;49.872;6.190;2023-02-19T04:15:36;99976.60;;;7.93;93.06
63447;BME280;49577;49.872;6.190;2023-02-19T04:18:14;99976.06;;;7.94;92.97
63447;BME280;49577;49.872;6.190;2023-02-19T04:20:44;99979.18;;;7.94;92.88
63447;BME280;49577;49.872;6.190;2023-02-19T04:23:10;99974.66;;;7.94;92.74
63447;BME280;49577;49.872;6.190;2023-02-19T04:25:37;99975.74;;;7.93;92.79
63447;BME280;49577;49.872;6.190;2023-02-19T04:28:03;99975.15;;;7.91;92.62
63447;BME280;49577;49.872;6.190;2023-02-19T04:30:28;99980.63;;;7.85;92.30
63447;BME280;49577;49.872;6.190;2023-02-19T04:32:54;99983.77;;;7.81;92.50
63447;BME280;49577;49.872;6.190;2023-02-19T04:35:19;99992.45;;;7.81;92.64
63447;BME280;49577;49.872;6.190;2023-02-19T04:37:44;99996.64;;;7.81;92.77
63447;BME280;49577;49.872;6.190;2023-02-19T04:40:09;100002.90;;;7.81;92.82
63447;BME280;49577;49.872;6.190;2023-02-19T04:42:35;100008.79;;;7.81;92.83
63447;BME280;49577;49.872;6.190;2023-02-19T04:45:00;100015.73;;;7.82;92.94
63447;BME280;49577;49.872;6.190;2023-02-19T04:47:25;100019.80;;;7.80;92.82
63447;BME280;49577;49.872;6.190;2023-02-19T04:49:50;100020.73;;;7.79;92.68
63447;BME280;49577;49.872;6.190;2023-02-19T04:52:15;100026.61;;;7.79;92.61
63447;BME280;49577;49.872;6.190;2023-02-19T04:54:41;100024.52;;;7.79;92.51
63447;BME280;49577;49.872;6.190;2023-02-19T04:57:06;100025.40;;;7.79;92.13
63447;BME280;49577;49.872;6.190;2023-02-19T04:59:31;100031.63;;;7.80;91.86
63447;BME280;49577;49.872;6.190;2023-02-19T05:01:56;100031.08;;;7.81;91.92
63447;BME280;49577;49.872;6.190;2023-02-19T05:04:22;100034.21;;;7.81;91.58
63447;BME280;49577;49.872;6.190;2023-02-19T05:06:48;100040.15;;;7.80;91.27
63447;BME280;49577;49.872;6.190;2023-02-19T05:09:13;100045.14;;;7.82;91.45
63447;BME280;49577;49.872;6.190;2023-02-19T05:11:38;100052.98;;;7.82;91.13
63447;BME280;49577;49.872;6.190;2023-02-19T05:14:03;100055.38;;;7.82;91.39
63447;BME280;49577;49.872;6.190;2023-02-19T05:16:29;100055.36;;;7.82;90.94
63447;BME280;49577;49.872;6.190;2023-02-19T05:18:54;100056.73;;;7.83;90.81
63447;BME280;49577;49.872;6.190;2023-02-19T05:21:19;100056.55;;;7.83;90.51
63447;BME280;49577;49.872;6.190;2023-02-19T05:23:44;100055.33;;;7.83;90.31
63447;BME280;49577;49.872;6.190;2023-02-19T05:26:14;100056.31;;;7.84;90.47
63447;BME280;49577;49.872;6.190;2023-02-19T05:28:43;100060.59;;;7.86;90.49
63447;BME280;49577;49.872;6.190;2023-02-19T05:31:09;100063.65;;;7.88;90.69
63447;BME280;49577;49.872;6.190;2023-02-19T05:33:35;100063.09;;;7.89;90.80
63447;BME280;49577;49.872;6.190;2023-02-19T05:36:03;100064.45;;;7.89;90.82
63447;BME280;49577;49.872;6.190;2023-02-19T05:38:29;100068.98;;;7.89;90.95
63447;BME280;49577;49.872;6.190;2023-02-19T05:40:54;100070.21;;;7.89;90.95
63447;BME280;49577;49.872;6.190;2023-02-19T05:43:19;100071.30;;;7.88;90.94
63447;BME280;49577;49.872;6.190;2023-02-19T05:45:44;100074.85;;;7.86;90.80
63447;BME280;49577;49.872;6.190;2023-02-19T05:48:10;100078.36;;;7.85;90.86
63447;BME280;49577;49.872;6.190;2023-02-19T05:50:36;100079.05;;;7.85;90.67
63447;BME280;49577;49.872;6.190;2023-02-19T05:53:02;100076.62;;;7.85;90.49
63447;BME280;49577;49.872;6.190;2023-02-19T05:55:28;100073.98;;;7.86;90.50
63447;BME280;49577;49.872;6.190;2023-02-19T05:57:54;100072.16;;;7.88;90.40
63447;BME280;49577;49.872;6.190;2023-02-19T06:00:19;100075.61;;;7.89;90.23
63447;BME280;49577;49.872;6.190;2023-02-19T06:02:45;100080.48;;;7.84;89.90
63447;BME280;49577;49.872;6.190;2023-02-19T06:05:10;100082.89;;;7.81;90.04
63447;BME280;49577;49.872;6.190;2023-02-19T06:07:36;100084.96;;;7.82;90.33
63447;BME280;49577;49.872;6.190;2023-02-19T06:10:03;100089.59;;;7.83;90.51
63447;BME280;49577;49.872;6.190;2023-02-19T06:12:29;100088.90;;;7.83;90.48
63447;BME280;49577;49.872;6.190;2023-02-19T06:14:54;100093.45;;;7.82;90.21
63447;BME280;49577;49.872;6.190;2023-02-19T06:17:19;100089.17;;;7.81;90.08
63447;BME280;49577;49.872;6.190;2023-02-19T06:19:44;100095.45;;;7.76;89.72
63447;BME280;49577;49.872;6.190;2023-02-19T06:22:09;100101.61;;;7.74;89.83
63447;BME280;49577;49.872;6.190;2023-02-19T06:24:35;100106.27;;;7.75;89.88
63447;BME280;49577;49.872;6.190;2023-02-19T06:27:04;100114.88;;;7.77;89.96
63447;BME280;49577;49.872;6.190;2023-02-19T06:29:29;100118.09;;;7.79;89.87
63447;BME280;49577;49.872;6.190;2023-02-19T06:31:56;100120.97;;;7.82;89.84
63447;BME280;49577;49.872;6.190;2023-02-19T06:34:21;100116.72;;;7.83;89.77
63447;BME280;49577;49.872;6.190;2023-02-19T06:36:47;100123.08;;;7.85;89.61
63447;BME280;49577;49.872;6.190;2023-02-19T06:39:13;100126.77;;;7.84;89.47
63447;BME280;49577;49.872;6.190;2023-02-19T06:41:38;100133.33;;;7.85;89.59
63447;BME280;49577;49.872;6.190;2023-02-19T06:44:03;100134.20;;;7.85;89.62
63447;BME280;49577;49.872;6.190;2023-02-19T06:46:28;100139.58;;;7.85;89.58
63447;BME280;49577;49.872;6.190;2023-02-19T06:48:54;100138.09;;;7.84;89.31
63447;BME280;49577;49.872;6.190;2023-02-19T06:51:19;100137.55;;;7.84;89.41
63447;BME280;49577;49.872;6.190;2023-02-19T06:53:48;100139.93;;;7.85;89.56
63447;BME280;49577;49.872;6.190;2023-02-19T06:56:20;100142.30;;;7.87;89.66
63447;BME280;49577;49.872;6.190;2023-02-19T06:58:47;100146.59;;;7.89;89.64
63447;BME280;49577;49.872;6.190;2023-02-19T07:01:12;100147.90;;;7.90;89.75
63447;BME280;49577;49.872;6.190;2023-02-19T07:03:37;100148.05;;;7.92;89.48
63447;BME280;49577;49.872;6.190;2023-02-19T07:06:02;100150.42;;;7.88;89.00
63447;BME280;49577;49.872;6.190;2023-02-19T07:08:28;100151.27;;;7.85;89.05
63447;BME280;49577;49.872;6.190;2023-02-19T07:10:54;100155.42;;;7.81;89.08
63447;BME280;49577;49.872;6.190;2023-02-19T07:13:20;100155.52;;;7.79;89.00
63447;BME280;49577;49.872;6.190;2023-02-19T07:15:45;100156.46;;;7.77;89.02
63447;BME280;49577;49.872;6.190;2023-02-19T07:18:10;100163.77;;;7.77;89.16
63447;BME280;49577;49.872;6.190;2023-02-19T07:20:35;100163.18;;;7.78;89.29
63447;BME280;49577;49.872;6.190;2023-02-19T07:23:01;100163.05;;;7.81;89.26
63447;BME280;49577;49.872;6.190;2023-02-19T07:25:26;100165.91;;;7.83;89.00
63447;BME280;49577;49.872;6.190;2023-02-19T07:27:51;100168.25;;;7.86;89.13
63447;BME280;49577;49.872;6.190;2023-02-19T07:30:17;100166.91;;;7.89;88.98
63447;BME280;49577;49.872;6.190;2023-02-19T07:32:42;100171.79;;;7.93;89.00
63447;BME280;49577;49.872;6.190;2023-02-19T07:35:09;100174.11;;;7.96;88.89
63447;BME280;49577;49.872;6.190;2023-02-19T07:37:34;100174.04;;;7.98;88.85
63447;BME280;49577;49.872;6.190;2023-02-19T07:40:00;100173.51;;;8.02;88.71
63447;BME280;49577;49.872;6.190;2023-02-19T07:42:25;100175.86;;;8.03;88.78
63447;BME280;49577;49.872;6.190;2023-02-19T07:44:50;100175.27;;;8.05;88.80
63447;BME280;49577;49.872;6.190;2023-02-19T07:47:15;100179.98;;;8.09;89.06
63447;BME280;49577;49.872;6.190;2023-02-19T07:49:41;100181.31;;;8.14;89.15
63447;BME280;49577;49.872;6.190;2023-02-19T07:52:06;100182.68;;;8.19;89.00
63447;BME280;49577;49.872;6.190;2023-02-19T07:54:31;100184.23;;;8.23;88.95
63447;BME280;49577;49.872;6.190;2023-02-19T07:56:56;100186.89;;;8.26;88.78
63447;BME280;49577;49.872;6.190;2023-02-19T07:59:22;100195.09;;;8.25;88.37
63447;BME280;49577;49.872;6.190;2023-02-19T08:01:47;100201.14;;;8.27;88.35
63447;BME280;49577;49.872;6.190;2023-02-19T08:04:51;100209.85;;;8.26;87.86
63447;BME280;49577;49.872;6.190;2023-02-19T08:07:16;100213.96;;;8.27;87.85
63447;BME280;49577;49.872;6.190;2023-02-19T08:09:41;100217.51;;;8.30;87.89
63447;BME280;49577;49.872;6.190;2023-02-19T08:12:07;100214.48;;;8.32;87.87
63447;BME280;49577;49.872;6.190;2023-02-19T08:14:51;100215.92;;;8.35;87.74
63447;BME280;49577;49.872;6.190;2023-02-19T08:17:16;100217.55;;;8.38;87.65
63447;BME280;49577;49.872;6.190;2023-02-19T08:19:42;100221.54;;;8.43;87.59
63447;BME280;49577;49.872;6.190;2023-02-19T08:22:07;100224.95;;;8.48;87.49
63447;BME280;49577;49.872;6.190;2023-02-19T08:24:32;100223.07;;;8.55;87.37
63447;BME280;49577;49.872;6.190;2023-02-19T08:26:57;100232.20;;;8.61;87.31
63447;BME280;49577;49.872;6.190;2023-02-19T08:29:23;100236.12;;;8.71;87.37
63447;BME280;49577;49.872;6.190;2023-02-19T08:31:48;100236.71;;;8.84;87.42
63447;BME280;49577;49.872;6.190;2023-02-19T08:34:13;100238.16;;;9.02;87.30
63447;BME280;49577;49.872;6.190;2023-02-19T08:36:38;100241.42;;;9.19;87.02
63447;BME280;49577;49.872;6.190;2023-02-19T08:39:04;100245.23;;;9.26;86.54
63447;BME280;49577;49.872;6.190;2023-02-19T08:41:29;100247.78;;;9.31;86.28
63447;BME280;49577;49.872;6.190;2023-02-19T08:43:54;100255.92;;;9.36;86.04
63447;BME280;49577;49.872;6.190;2023-02-19T08:46:19;100263.50;;;9.42;86.02
63447;BME280;49577;49.872;6.190;2023-02-19T08:48:45;100260.09;;;9.48;85.87
63447;BME280;49577;49.872;6.190;2023-02-19T08:51:10;100263.98;;;9.54;85.68
63447;BME280;49577;49.872;6.190;2023-02-19T08:53:36;100269.71;;;9.61;85.13
63447;BME280;49577;49.872;6.190;2023-02-19T08:56:05;100276.39;;;9.68;84.26
63447;BME280;49577;49.872;6.190;2023-02-19T08:58:31;100277.75;;;9.75;84.33
63447;BME280;49577;49.872;6.190;2023-02-19T09:00:57;100277.27;;;9.85;84.04
63447;BME280;49577;49.872;6.190;2023-02-19T09:03:22;100282.91;;;9.95;83.88
63447;BME280;49577;49.872;6.190;2023-02-19T09:05:47;100286.78;;;10.08;83.95
63447;BME280;49577;49.872;6.190;2023-02-19T09:08:12;100286.80;;;10.18;83.55
63447;BME280;49577;49.872;6.190;2023-02-19T09:10:38;100286.92;;;10.27;83.19
63447;BME280;49577;49.872;6.190;2023-02-19T09:13:03;100289.16;;;10.34;83.02
63447;BME280;49577;49.872;6.190;2023-02-19T09:15:29;100295.46;;;10.37;82.36
63447;BME280;49577;49.872;6.190;2023-02-19T09:17:54;100299.44;;;10.38;82.17
63447;BME280;49577;49.872;6.190;2023-02-19T09:20:19;100301.69;;;10.35;81.67
63447;BME280;49577;49.872;6.190;2023-02-19T09:22:45;100303.14;;;10.31;81.54
63447;BME280;49577;49.872;6.190;2023-02-19T09:25:10;100301.48;;;10.25;81.29
63447;BME280;49577;49.872;6.190;2023-02-19T09:27:35;100303.92;;;10.21;81.16
63447;BME280;49577;49.872;6.190;2023-02-19T09:30:00;100304.83;;;10.18;81.12
63447;BME280;49577;49.872;6.190;2023-02-19T09:32:28;100312.48;;;10.14;81.22
63447;BME280;49577;49.872;6.190;2023-02-19T09:34:53;100315.80;;;10.07;80.59
63447;BME280;49577;49.872;6.190;2023-02-19T09:37:19;100316.42;;;9.98;80.53
63447;BME280;49577;49.872;6.190;2023-02-19T09:39:44;100317.13;;;9.91;80.44
63447;BME280;49577;49.872;6.190;2023-02-19T09:44:35;100323.00;;;9.81;80.65
63447;BME280;49577;49.872;6.190;2023-02-19T09:47:02;100326.16;;;9.77;80.62
63447;BME280;49577;49.872;6.190;2023-02-19T09:49:34;100324.69;;;9.75;80.71
63447;BME280;49577;49.872;6.190;2023-02-19T09:52:07;100324.36;;;9.79;80.83
63447;BME280;49577;49.872;6.190;2023-02-19T09:54:36;100328.27;;;9.88;81.04
63447;BME280;49577;49.872;6.190;2023-02-19T09:57:02;100330.75;;;9.98;80.90
63447;BME280;49577;49.872;6.190;2023-02-19T09:59:29;100333.66;;;10.06;80.46
63447;BME280;49577;49.872;6.190;2023-02-19T10:02:03;100334.95;;;10.12;80.16
63447;BME280;49577;49.872;6.190;2023-02-19T10:04:29;100338.10;;;10.19;79.86
63447;BME280;49577;49.872;6.190;2023-02-19T10:06:55;100338.55;;;10.28;79.83
63447;BME280;49577;49.872;6.190;2023-02-19T10:09:27;100343.97;;;10.35;79.74
63447;BME280;49577;49.872;6.190;2023-02-19T10:11:53;100347.95;;;10.39;79.48
63447;BME280;49577;49.872;6.190;2023-02-19T10:16:50;100337.08;;;10.54;79.36
63447;BME280;49577;49.872;6.190;2023-02-19T10:19:16;100335.27;;;10.69;78.97
63447;BME280;49577;49.872;6.190;2023-02-19T10:21:41;100334.71;;;10.79;78.60
63447;BME280;49577;49.872;6.190;2023-02-19T10:24:07;100334.38;;;10.89;78.18
63447;BME280;49577;49.872;6.190;2023-02-19T10:26:38;100335.48;;;10.98;77.44
63447;BME280;49577;49.872;6.190;2023-02-19T10:29:04;100335.10;;;11.05;77.03
63447;BME280;49577;49.872;6.190;2023-02-19T10:31:30;100331.23;;;11.16;76.93
63447;BME280;49577;49.872;6.190;2023-02-19T10:33:56;100330.81;;;11.27;76.54
63447;BME280;49577;49.872;6.190;2023-02-19T10:36:24;100331.75;;;11.38;76.13
63447;BME280;49577;49.872;6.190;2023-02-19T10:38:50;100335.67;;;11.47;75.49
63447;BME280;49577;49.872;6.190;2023-02-19T10:41:17;100339.80;;;11.48;74.83
63447;BME280;49577;49.872;6.190;2023-02-19T10:43:49;100339.84;;;11.53;74.63
63447;BME280;49577;49.872;6.190;2023-02-19T10:46:16;100329.83;;;11.57;73.86
63447;BME280;49577;49.872;6.190;2023-02-19T10:48:48;100324.23;;;11.66;74.13
63447;BME280;49577;49.872;6.190;2023-02-19T10:51:14;100319.23;;;11.85;72.89
63447;BME280;49577;49.872;6.190;2023-02-19T10:53:49;100340.19;;;12.13;72.57
63447;BME280;49577;49.872;6.190;2023-02-19T10:56:21;100348.02;;;12.35;71.19
63447;BME280;49577;49.872;6.190;2023-02-19T10:58:47;100346.13;;;12.59;70.64
63447;BME280;49577;49.872;6.190;2023-02-19T11:01:19;100347.20;;;12.70;69.13
63447;BME280;49577;49.872;6.190;2023-02-19T11:03:45;100355.70;;;12.74;69.40
63447;BME280;49577;49.872;6.190;2023-02-19T11:06:12;100355.11;;;12.84;68.48
63447;BME280;49577;49.872;6.190;2023-02-19T11:08:45;100359.55;;;12.83;68.16
63447;BME280;49577;49.872;6.190;2023-02-19T11:11:20;100352.95;;;12.79;67.89
63447;BME280;49577;49.872;6.190;2023-02-19T11:13:46;100351.25;;;12.72;67.32
63447;BME280;49577;49.872;6.190;2023-02-19T11:16:11;100357.70;;;12.70;67.66
63447;BME280;49577;49.872;6.190;2023-02-19T11:18:36;100364.20;;;12.67;67.58
63447;BME280;49577;49.872;6.190;2023-02-19T11:21:04;100376.57;;;12.56;66.73
63447;BME280;49577;49.872;6.190;2023-02-19T11:23:36;100375.07;;;12.37;66.95
63447;BME280;49577;49.872;6.190;2023-02-19T11:26:03;100374.79;;;12.24;67.26
63447;BME280;49577;49.872;6.190;2023-02-19T11:30:55;100371.83;;;12.02;67.12
63447;BME280;49577;49.872;6.190;2023-02-19T11:33:36;100368.01;;;11.95;67.13
63447;BME280;49577;49.872;6.190;2023-02-19T11:57:46;100367.45;;;11.93;66.69
63447;BME280;49577;49.872;6.190;2023-02-19T12:00:30;100371.22;;;11.81;66.79
63447;BME280;49577;49.872;6.190;2023-02-19T12:03:11;100373.11;;;11.69;66.71
63447;BME280;49577;49.872;6.190;2023-02-19T12:18:35;100403.91;;;11.65;67.20
63447;BME280;49577;49.872;6.190;2023-02-19T12:26:28;100405.34;;;11.68;66.86
63447;BME280;49577;49.872;6.190;2023-02-19T12:39:25;100404.46;;;11.49;66.03
63447;BME280;49577;49.872;6.190;2023-02-19T12:42:27;100402.73;;;11.49;65.97
63447;BME280;49577;49.872;6.190;2023-02-19T12:45:00;100402.50;;;11.46;65.60
63447;BME280;49577;49.872;6.190;2023-02-19T12:47:31;100404.23;;;11.47;65.94
63447;BME280;49577;49.872;6.190;2023-02-19T12:50:01;100402.05;;;11.45;65.55
63447;BME280;49577;49.872;6.190;2023-02-19T12:52:30;100395.84;;;11.40;65.72
63447;BME280;49577;49.872;6.190;2023-02-19T12:55:00;100393.98;;;11.39;66.14
63447;BME280;49577;49.872;6.190;2023-02-19T12:57:28;100385.20;;;11.43;66.20
63447;BME280;49577;49.872;6.190;2023-02-19T13:00:00;100386.27;;;11.49;66.14
63447;BME280;49577;49.872;6.190;2023-02-19T13:02:44;100386.77;;;11.62;66.03
63447;BME280;49577;49.872;6.190;2023-02-19T13:08:06;100382.72;;;12.38;65.56
63447;BME280;49577;49.872;6.190;2023-02-19T13:11:36;100380.96;;;12.59;65.44
63447;BME280;49577;49.872;6.190;2023-02-19T13:13:43;100371.98;;;12.74;64.88
63447;BME280;49577;49.872;6.190;2023-02-19T13:16:10;100376.38;;;12.74;64.67
63447;BME280;49577;49.872;6.190;2023-02-19T13:18:40;100369.66;;;12.75;64.60
63447;BME280;49577;49.872;6.190;2023-02-19T13:21:06;100367.30;;;12.74;64.34
63447;BME280;49577;49.872;6.190;2023-02-19T13:23:34;100363.08;;;12.71;64.38
63447;BME280;49577;49.872;6.190;2023-02-19T13:36:34;100373.96;;;12.50;64.99
63447;BME280;49577;49.872;6.190;2023-02-19T13:39:01;100372.95;;;12.37;64.66
63447;BME280;49577;49.872;6.190;2023-02-19T13:41:30;100368.52;;;12.23;64.99
63447;BME280;49577;49.872;6.190;2023-02-19T13:44:02;100366.83;;;12.13;65.33
63447;BME280;49577;49.872;6.190;2023-02-19T13:46:47;100359.95;;;12.01;65.55
63447;BME280;49577;49.872;6.190;2023-02-19T13:52:00;100367.02;;;11.91;65.84
63447;BME280;49577;49.872;6.190;2023-02-19T13:54:27;100368.52;;;11.89;65.94
63447;BME280;49577;49.872;6.190;2023-02-19T13:59:50;100374.06;;;11.94;65.73
63447;BME280;49577;49.872;6.190;2023-02-19T14:24:51;100386.56;;;11.60;63.45
63447;BME280;49577;49.872;6.190;2023-02-19T14:27:17;100393.40;;;11.50;63.82
63447;BME280;49577;49.872;6.190;2023-02-19T14:29:42;100398.83;;;11.40;64.05
63447;BME280;49577;49.872;6.190;2023-02-19T14:32:09;100398.94;;;11.28;64.16
63447;BME280;49577;49.872;6.190;2023-02-19T14:34:37;100401.86;;;11.12;64.09
63447;BME280;49577;49.872;6.190;2023-02-19T14:37:03;100399.84;;;10.98;64.42
63447;BME280;49577;49.872;6.190;2023-02-19T14:39:31;100401.85;;;10.89;64.69
63447;BME280;49577;49.872;6.190;2023-02-19T14:44:24;100405.23;;;10.81;64.98
63447;BME280;49577;49.872;6.190;2023-02-19T14:47:06;100408.73;;;10.78;65.01
63447;BME280;49577;49.872;6.190;2023-02-19T14:50:17;100413.17;;;10.76;65.34
63447;BME280;49577;49.872;6.190;2023-02-19T14:54:48;100429.87;;;10.92;66.12
63447;BME280;49577;49.872;6.190;2023-02-19T14:57:17;100441.97;;;11.04;66.02
63447;BME280;49577;49.872;6.190;2023-02-19T14:59:53;100436.83;;;11.16;66.21
63447;BME280;49577;49.872;6.190;2023-02-19T15:02:19;100428.35;;;11.24;66.13
63447;BME280;49577;49.872;6.190;2023-02-19T15:04:50;100432.02;;;11.34;66.12
63447;BME280;49577;49.872;6.190;2023-02-19T15:07:16;100434.37;;;11.39;65.49
63447;BME280;49577;49.872;6.190;2023-02-19T15:09:44;100432.49;;;11.32;64.81
63447;BME280;49577;49.872;6.190;2023-02-19T15:12:30;100439.26;;;11.23;64.83
63447;BME280;49577;49.872;6.190;2023-02-19T15:14:58;100443.76;;;11.17;65.06
63447;BME280;49577;49.872;6.190;2023-02-19T15:17:28;100447.47;;;11.13;65.34
63447;BME280;49577;49.872;6.190;2023-02-19T15:19:54;100448.98;;;11.11;65.61
63447;BME280;49577;49.872;6.190;2023-02-19T15:22:21;100452.61;;;11.05;65.48
63447;BME280;49577;49.872;6.190;2023-02-19T15:24:48;100458.97;;;10.97;65.63
63447;BME280;49577;49.872;6.190;2023-02-19T15:27:20;100460.66;;;10.91;65.61
63447;BME280;49577;49.872;6.190;2023-02-19T15:29:48;100460.90;;;10.82;65.38
63447;BME280;49577;49.872;6.190;2023-02-19T15:32:21;100457.55;;;10.76;65.41